createdAt,value
2023-01-23T00:01:28.493Z,3.84
2023-01-23T00:03:56.401Z,3.82
2023-01-23T00:06:23.959Z,3.84
2023-01-23T00:08:51.028Z,3.84
2023-01-23T00:11:21.077Z,3.78
2023-01-23T00:13:47.902Z,3.77
2023-01-23T00:16:17.421Z,3.79
2023-01-23T00:18:44.207Z,3.75
2023-01-23T00:21:16.040Z,3.67
2023-01-23T00:23:48.168Z,3.69
2023-01-23T00:26:17.765Z,3.58
2023-01-23T00:28:46.673Z,3.61
2023-01-23T00:31:17.918Z,3.51
2023-01-23T00:33:45.778Z,3.57
2023-01-23T00:36:14.236Z,3.54
2023-01-23T00:38:41.603Z,3.59
2023-01-23T00:41:08.886Z,3.50
2023-01-23T00:43:35.724Z,3.46
2023-01-23T00:46:02.841Z,3.36
2023-01-23T00:48:29.691Z,3.34
2023-01-23T00:50:56.766Z,3.36
2023-01-23T00:53:23.707Z,3.39
2023-01-23T00:55:50.641Z,3.43
2023-01-23T00:58:18.650Z,3.42
2023-01-23T01:00:45.649Z,3.42
2023-01-23T01:03:12.506Z,3.41
2023-01-23T01:05:41.096Z,3.38
2023-01-23T01:08:07.833Z,3.37
2023-01-23T01:10:34.899Z,3.34
2023-01-23T01:13:03.331Z,3.37
2023-01-23T01:15:30.983Z,3.41
2023-01-23T01:17:58.644Z,3.48
2023-01-23T01:20:27.153Z,3.52
2023-01-23T01:22:59.459Z,3.56
2023-01-23T01:25:26.566Z,3.60
2023-01-23T01:27:56.047Z,3.60
2023-01-23T01:30:23.379Z,3.63
2023-01-23T01:32:50.205Z,3.62
2023-01-23T01:35:16.996Z,3.64
2023-01-23T01:37:43.812Z,3.60
2023-01-23T01:40:18.711Z,3.66
2023-01-23T01:43:01.412Z,3.67
2023-01-23T01:46:04.669Z,3.63
2023-01-23T01:48:37.339Z,3.72
2023-01-23T01:51:23.059Z,3.79
2023-01-23T01:54:10.395Z,3.82
2023-01-23T01:57:00.863Z,3.79
2023-01-23T01:59:32.174Z,3.95
2023-01-23T02:02:13.840Z,4.00
2023-01-23T02:04:48.876Z,4.04
2023-01-23T02:07:49.007Z,4.11
2023-01-23T02:10:16.932Z,4.17
2023-01-23T02:12:52.042Z,4.21
2023-01-23T02:15:20.431Z,4.24
2023-01-23T02:17:49.896Z,4.28
2023-01-23T02:20:36.991Z,4.32
2023-01-23T02:23:25.633Z,4.28
2023-01-23T02:26:06.785Z,4.27
2023-01-23T02:28:40.768Z,4.31
2023-01-23T02:31:09.358Z,4.35
2023-01-23T02:33:39.081Z,4.33
2023-01-23T02:36:09.108Z,4.32
2023-01-23T02:38:45.962Z,4.33
2023-01-23T02:41:15.958Z,4.30
2023-01-23T02:43:44.129Z,4.23
2023-01-23T02:46:13.081Z,4.21
2023-01-23T02:48:40.928Z,4.18
2023-01-23T02:51:08.196Z,4.21
2023-01-23T02:53:35.045Z,4.20
2023-01-23T02:56:01.895Z,4.19
2023-01-23T02:58:47.873Z,4.18
2023-01-23T03:01:14.688Z,4.16
2023-01-23T03:03:44.323Z,4.13
2023-01-23T03:06:12.782Z,4.06
2023-01-23T03:08:49.272Z,4.08
2023-01-23T03:11:18.650Z,4.06
2023-01-23T03:13:47.192Z,4.05
2023-01-23T03:16:14.853Z,4.03
2023-01-23T03:18:53.419Z,4.03
2023-01-23T03:21:21.396Z,4.01
2023-01-23T03:23:48.418Z,3.97
2023-01-23T03:26:15.902Z,3.94
2023-01-23T03:29:01.756Z,3.92
2023-01-23T03:31:28.805Z,3.88
2023-01-23T03:33:55.724Z,3.85
2023-01-23T03:36:23.559Z,3.77
2023-01-23T03:39:09.729Z,3.69
2023-01-23T03:41:38.347Z,3.59
2023-01-23T03:44:06.528Z,3.53
2023-01-23T03:46:33.448Z,3.52
2023-01-23T03:49:00.230Z,3.48
2023-01-23T03:51:27.521Z,3.47
2023-01-23T03:53:54.660Z,3.46
2023-01-23T03:56:21.648Z,3.42
2023-01-23T03:58:48.489Z,3.35
2023-01-23T04:01:15.561Z,3.29
2023-01-23T04:03:44.600Z,3.26
2023-01-23T04:06:11.577Z,3.21
2023-01-23T04:08:39.029Z,3.17
2023-01-23T04:11:08.372Z,3.06
2023-01-23T04:13:35.879Z,3.03
2023-01-23T04:16:03.800Z,3.02
2023-01-23T04:18:30.861Z,3.01
2023-01-23T04:20:58.649Z,2.97
2023-01-23T04:23:26.264Z,2.92
2023-01-23T04:25:54.005Z,2.95
2023-01-23T04:28:22.013Z,2.97
2023-01-23T04:30:53.532Z,2.92
2023-01-23T04:33:30.948Z,2.92
2023-01-23T04:36:01.036Z,2.89
2023-01-23T04:38:31.025Z,2.85
2023-01-23T04:41:07.530Z,2.82
2023-01-23T04:43:37.431Z,2.79
2023-01-23T04:46:08.461Z,2.74
2023-01-23T04:48:55.015Z,2.72
2023-01-23T04:51:24.008Z,2.72
2023-01-23T04:53:51.106Z,2.72
2023-01-23T04:56:18.021Z,2.69
2023-01-23T04:58:44.849Z,2.71
2023-01-23T05:01:16.767Z,2.70
2023-01-23T05:03:44.709Z,2.71
2023-01-23T05:06:11.497Z,2.71
2023-01-23T05:08:38.232Z,2.70
2023-01-23T05:11:28.125Z,2.71
2023-01-23T05:13:55.115Z,2.70
2023-01-23T05:16:21.914Z,2.70
2023-01-23T05:19:12.832Z,2.64
2023-01-23T05:21:39.836Z,2.62
2023-01-23T05:24:10.746Z,2.62
2023-01-23T05:26:38.089Z,2.63
2023-01-23T05:29:05.071Z,2.65
2023-01-23T05:31:35.535Z,2.57
2023-01-23T05:34:25.379Z,2.58
2023-01-23T05:36:52.237Z,2.61
2023-01-23T05:39:20.078Z,2.62
2023-01-23T05:41:47.099Z,2.67
2023-01-23T05:44:39.903Z,2.72
2023-01-23T05:47:14.633Z,2.79
2023-01-23T05:49:41.357Z,2.79
2023-01-23T05:52:09.150Z,2.79
2023-01-23T05:54:35.906Z,2.86
2023-01-23T05:57:02.768Z,2.85
2023-01-23T06:00:11.872Z,2.81
2023-01-23T06:03:00.100Z,2.81
2023-01-23T06:05:45.460Z,2.81
2023-01-23T06:08:19.717Z,2.85
2023-01-23T06:10:46.612Z,2.88
2023-01-23T06:13:13.992Z,2.87
2023-01-23T06:15:42.114Z,2.86
2023-01-23T06:18:11.352Z,2.86
2023-01-23T06:20:38.254Z,2.91
2023-01-23T06:23:05.715Z,2.96
2023-01-23T06:25:33.319Z,2.93
2023-01-23T06:28:06.190Z,2.93
2023-01-23T06:30:37.009Z,2.88
2023-01-23T06:33:10.422Z,2.88
2023-01-23T06:35:41.107Z,2.92
2023-01-23T06:38:08.161Z,2.95
2023-01-23T06:40:35.924Z,3.00
2023-01-23T06:43:17.686Z,3.07
2023-01-23T06:45:46.033Z,3.13
2023-01-23T06:48:13.428Z,3.20
2023-01-23T06:50:43.145Z,3.27
2023-01-23T06:53:14.495Z,3.34
2023-01-23T06:55:41.771Z,3.43
2023-01-23T06:58:08.676Z,3.44
2023-01-23T07:00:35.932Z,3.52
2023-01-23T07:03:06.444Z,3.56
2023-01-23T07:05:39.703Z,3.58
2023-01-23T07:08:08.475Z,3.68
2023-01-23T07:10:37.841Z,3.75
2023-01-23T07:13:09.842Z,3.76
2023-01-23T07:15:38.657Z,3.78
2023-01-23T07:18:09.128Z,3.81
2023-01-23T07:20:35.958Z,3.77
2023-01-23T07:23:04.712Z,3.82
2023-01-23T07:25:31.576Z,3.86
2023-01-23T07:27:58.357Z,3.96
2023-01-23T07:30:26.360Z,4.02
2023-01-23T07:32:53.580Z,4.05
2023-01-23T07:35:22.248Z,4.02
2023-01-23T07:37:48.975Z,4.03
2023-01-23T07:40:15.907Z,4.02
2023-01-23T07:42:42.819Z,4.09
2023-01-23T07:45:10.988Z,4.13
2023-01-23T07:47:41.533Z,4.18
2023-01-23T07:50:14.578Z,4.17
2023-01-23T07:52:41.750Z,4.20
2023-01-23T07:55:08.931Z,4.01
2023-01-23T07:57:35.752Z,3.97
2023-01-23T08:00:02.964Z,3.98
2023-01-23T08:02:40.251Z,4.00
2023-01-23T08:05:07.554Z,3.92
2023-01-23T08:07:34.509Z,3.87
2023-01-23T08:10:01.319Z,3.89
2023-01-23T08:12:29.408Z,4.03
2023-01-23T08:14:58.693Z,4.12
2023-01-23T08:17:25.768Z,4.17
2023-01-23T08:19:52.706Z,4.17
2023-01-23T08:22:19.508Z,4.16
2023-01-23T08:24:47.318Z,4.11
2023-01-23T08:27:14.309Z,4.13
2023-01-23T08:29:41.755Z,4.22
2023-01-23T08:32:08.764Z,4.27
2023-01-23T08:34:35.737Z,4.30
2023-01-23T08:37:03.816Z,4.38
2023-01-23T08:39:30.659Z,4.43
2023-01-23T08:41:57.392Z,4.48
2023-01-23T08:44:25.310Z,4.60
2023-01-23T08:46:52.156Z,4.59
2023-01-23T08:49:20.450Z,4.59
2023-01-23T08:51:47.680Z,4.66
2023-01-23T08:54:14.465Z,4.73
2023-01-23T08:56:41.428Z,4.80
2023-01-23T08:59:09.082Z,4.86
2023-01-23T09:01:38.867Z,4.96
2023-01-23T09:04:05.687Z,5.05
2023-01-23T09:06:32.458Z,5.13
2023-01-23T09:08:59.338Z,5.17
2023-01-23T09:11:26.121Z,5.23
2023-01-23T09:13:54.083Z,5.32
2023-01-23T09:16:21.259Z,5.38
2023-01-23T09:18:48.275Z,5.48
2023-01-23T09:21:17.549Z,5.54
2023-01-23T09:23:45.655Z,5.56
2023-01-23T09:26:14.496Z,5.54
2023-01-23T09:28:42.844Z,5.65
2023-01-23T09:31:12.532Z,5.72
2023-01-23T09:33:39.776Z,5.63
2023-01-23T09:36:10.059Z,5.70
2023-01-23T09:38:40.123Z,5.73
2023-01-23T09:41:26.379Z,5.70
2023-01-23T09:44:10.865Z,5.88
2023-01-23T09:46:47.140Z,6.02
2023-01-23T09:49:41.340Z,6.03
2023-01-23T09:52:21.760Z,6.06
2023-01-23T09:54:49.976Z,6.21
2023-01-23T09:57:23.009Z,6.31
2023-01-23T10:00:00.138Z,6.29
2023-01-23T10:02:27.802Z,6.35
2023-01-23T10:04:56.625Z,6.46
2023-01-23T10:07:44.510Z,6.40
2023-01-23T10:10:32.816Z,6.46
2023-01-23T10:13:05.046Z,6.53
2023-01-23T10:15:42.572Z,6.35
2023-01-23T10:18:09.269Z,6.39
2023-01-23T10:20:58.971Z,6.43
2023-01-23T10:23:46.416Z,6.27
2023-01-23T10:26:23.617Z,6.36
2023-01-23T10:28:56.479Z,6.43
2023-01-23T10:31:44.694Z,6.52
2023-01-23T10:34:39.745Z,6.60
2023-01-23T10:37:18.208Z,6.55
2023-01-23T10:39:45.063Z,6.62
2023-01-23T10:42:16.975Z,6.64
2023-01-23T10:44:44.074Z,6.89
2023-01-23T10:47:23.009Z,7.05
2023-01-23T10:49:52.504Z,7.20
2023-01-23T10:52:39.973Z,7.22
2023-01-23T10:55:36.956Z,7.26
2023-01-23T10:58:04.020Z,7.50
2023-01-23T11:00:39.745Z,7.53
2023-01-23T11:03:39.893Z,7.45
2023-01-23T11:06:09.454Z,7.68
2023-01-23T11:08:50.089Z,7.63
2023-01-23T11:11:16.885Z,7.56
2023-01-23T11:13:48.577Z,7.33
2023-01-23T11:16:17.660Z,7.14
2023-01-23T11:18:54.364Z,7.12
2023-01-23T11:21:27.528Z,7.10
2023-01-23T11:24:10.482Z,7.00
2023-01-23T11:26:39.708Z,7.04
2023-01-23T11:29:21.707Z,6.89
2023-01-23T11:31:53.980Z,7.01
2023-01-23T11:34:24.655Z,6.99
2023-01-23T11:37:15.943Z,7.02
2023-01-23T11:39:57.765Z,7.09
2023-01-23T11:42:28.608Z,7.19
2023-01-23T11:44:58.572Z,7.20
2023-01-23T11:47:58.966Z,7.12
2023-01-23T11:50:37.105Z,7.22
2023-01-23T11:54:00.577Z,6.95
2023-01-23T11:56:45.801Z,7.10
2023-01-23T11:59:38.095Z,7.06
2023-01-23T12:02:04.876Z,7.03
2023-01-23T12:04:59.332Z,6.98
2023-01-23T12:07:26.657Z,7.01
2023-01-23T12:10:16.334Z,7.08
2023-01-23T12:12:57.635Z,7.05
2023-01-23T12:15:42.060Z,7.08
2023-01-23T12:18:08.775Z,7.06
2023-01-23T12:21:17.025Z,6.99
2023-01-23T12:24:19.412Z,7.05
2023-01-23T12:27:01.401Z,7.13
2023-01-23T12:29:42.925Z,7.18
2023-01-23T12:32:47.365Z,7.18
2023-01-23T12:35:32.808Z,7.28
2023-01-23T12:38:20.661Z,7.21
2023-01-23T12:40:58.864Z,7.16
2023-01-23T12:44:07.133Z,7.06
2023-01-23T12:46:40.637Z,7.19
2023-01-23T12:49:30.679Z,7.18
2023-01-23T12:52:05.126Z,7.27
2023-01-23T12:54:39.617Z,7.30
2023-01-23T12:57:08.316Z,7.42
2023-01-23T13:00:00.875Z,7.43
2023-01-23T13:02:40.601Z,7.35
2023-01-23T13:05:21.277Z,7.44
2023-01-23T13:07:59.931Z,7.37
2023-01-23T13:11:32.767Z,7.30
2023-01-23T13:14:00.954Z,7.36
2023-01-23T13:16:31.042Z,7.32
2023-01-23T13:19:33.187Z,7.20
2023-01-23T13:22:27.424Z,6.99
2023-01-23T13:25:13.445Z,7.08
2023-01-23T13:27:59.218Z,7.04
2023-01-23T13:30:32.508Z,7.08
2023-01-23T13:33:05.885Z,6.70
2023-01-23T13:35:47.565Z,6.94
2023-01-23T13:38:23.560Z,7.04
2023-01-23T13:41:05.363Z,6.98
2023-01-23T13:43:55.315Z,6.94
2023-01-23T14:21:46.396Z,6.45
2023-01-23T14:27:36.756Z,6.25
2023-01-23T14:30:19.515Z,6.16
2023-01-23T14:32:46.847Z,6.17
2023-01-23T14:35:26.776Z,6.02
2023-01-23T14:37:56.622Z,5.94
2023-01-23T14:40:28.033Z,5.90
2023-01-23T14:43:02.411Z,5.86
2023-01-23T14:45:33.131Z,5.90
2023-01-23T14:48:05.952Z,5.89
2023-01-23T14:50:33.200Z,5.81
2023-01-23T14:53:06.093Z,5.69
2023-01-23T14:55:37.317Z,5.64
2023-01-23T14:58:05.182Z,5.62
2023-01-23T15:00:32.475Z,5.59
2023-01-23T15:02:59.314Z,5.59
2023-01-23T15:05:28.437Z,5.57
2023-01-23T15:08:21.200Z,5.44
2023-01-23T15:10:50.622Z,5.44
2023-01-23T15:13:40.614Z,5.37
2023-01-23T15:16:13.845Z,5.27
2023-01-23T15:18:49.662Z,4.97
2023-01-23T15:21:33.091Z,5.04
2023-01-23T15:24:16.294Z,5.02
2023-01-23T15:26:57.626Z,5.01
2023-01-23T15:29:24.453Z,4.98
2023-01-23T15:31:54.017Z,4.94
2023-01-23T15:34:31.002Z,4.89
2023-01-23T15:37:22.813Z,4.78
2023-01-23T15:40:02.444Z,4.83
2023-01-23T15:42:33.618Z,4.86
2023-01-23T15:45:01.669Z,4.84
2023-01-23T15:47:36.036Z,4.78
2023-01-23T15:50:04.410Z,4.80
2023-01-23T15:52:46.966Z,4.75
2023-01-23T15:55:14.696Z,4.86
2023-01-23T15:57:43.261Z,4.89
2023-01-23T16:00:17.607Z,4.89
2023-01-23T16:02:55.729Z,4.91
2023-01-23T16:05:25.372Z,4.88
2023-01-23T16:07:52.660Z,4.88
2023-01-23T16:10:20.718Z,4.90
2023-01-23T16:12:49.882Z,4.89
2023-01-23T16:15:19.951Z,4.86
2023-01-23T16:17:47.084Z,4.83
2023-01-23T16:20:22.598Z,4.78
2023-01-23T16:22:52.810Z,4.77
2023-01-23T16:25:41.945Z,4.74
2023-01-23T16:28:30.745Z,4.66
2023-01-23T16:30:57.533Z,4.72
2023-01-23T16:33:24.503Z,4.73
2023-01-23T16:35:52.288Z,4.67
2023-01-23T16:38:25.291Z,4.63
2023-01-23T16:40:53.844Z,4.61
2023-01-23T16:43:21.543Z,4.62
2023-01-23T16:45:48.307Z,4.60
2023-01-23T16:48:25.384Z,4.58
2023-01-23T16:50:57.531Z,4.55
2023-01-23T16:53:30.015Z,4.53
2023-01-23T16:55:59.087Z,4.48
2023-01-23T16:58:53.741Z,4.55
2023-01-23T17:01:23.095Z,4.59
2023-01-23T17:04:02.469Z,4.61
2023-01-23T17:06:30.158Z,4.75
2023-01-23T17:08:57.026Z,4.82
2023-01-23T17:11:34.190Z,4.84
2023-01-23T17:14:11.145Z,4.87
2023-01-23T17:16:38.058Z,4.89
2023-01-23T17:19:15.552Z,4.90
2023-01-23T17:21:42.515Z,4.91
2023-01-23T17:24:14.821Z,4.92
2023-01-23T17:26:41.708Z,4.94
2023-01-23T17:29:08.664Z,5.00
2023-01-23T17:31:36.095Z,5.04
2023-01-23T17:34:04.271Z,5.08
2023-01-23T17:36:31.212Z,5.09
2023-01-23T17:39:00.983Z,5.08
2023-01-23T17:41:28.045Z,5.08
2023-01-23T17:43:54.885Z,5.09
2023-01-23T17:46:28.031Z,5.10
2023-01-23T17:48:56.670Z,5.10
2023-01-23T17:51:25.544Z,5.10
2023-01-23T17:53:52.678Z,5.09
2023-01-23T17:56:19.622Z,5.12
2023-01-23T17:58:46.533Z,5.16
2023-01-23T18:01:23.609Z,5.08
2023-01-23T18:03:51.968Z,5.11
2023-01-23T18:06:20.272Z,5.09
2023-01-23T18:08:47.095Z,5.14
2023-01-23T18:11:22.341Z,5.10
2023-01-23T18:13:57.784Z,5.05
2023-01-23T18:16:26.906Z,5.03
2023-01-23T18:19:16.635Z,4.99
2023-01-23T18:21:44.851Z,5.08
2023-01-23T18:24:32.688Z,5.02
2023-01-23T18:27:05.207Z,5.10
2023-01-23T18:29:40.859Z,5.16
2023-01-23T18:32:26.564Z,5.21
2023-01-23T18:35:14.220Z,5.13
2023-01-23T18:37:52.971Z,5.21
2023-01-23T18:40:42.818Z,5.16
2023-01-23T18:43:27.596Z,5.17
2023-01-23T18:45:55.857Z,5.25
2023-01-23T18:48:26.018Z,5.23
2023-01-23T18:51:20.945Z,5.20
2023-01-23T18:53:59.786Z,5.24
2023-01-23T18:56:54.225Z,5.17
2023-01-23T18:59:39.707Z,4.82
2023-01-23T19:02:46.943Z,4.85
2023-01-23T19:05:16.691Z,4.98
2023-01-23T19:07:45.164Z,4.95
2023-01-23T19:10:19.393Z,4.94
2023-01-23T19:13:17.573Z,4.92
2023-01-23T19:16:08.666Z,4.90
2023-01-23T19:18:41.176Z,4.98
2023-01-23T19:21:19.969Z,4.98
2023-01-23T19:23:58.486Z,4.94
2023-01-23T19:26:33.883Z,4.90
2023-01-23T19:29:19.300Z,4.89
2023-01-23T19:32:02.958Z,4.86
2023-01-23T19:34:31.362Z,4.80
2023-01-23T19:36:58.106Z,4.74
2023-01-23T19:39:24.819Z,4.71
2023-01-23T19:41:53.311Z,4.71
2023-01-23T19:44:24.226Z,4.61
2023-01-23T19:46:52.011Z,4.57
2023-01-23T19:49:18.964Z,4.55
2023-01-23T19:51:45.796Z,4.47
2023-01-23T19:54:14.293Z,4.43
2023-01-23T19:56:42.441Z,4.39
2023-01-23T19:59:09.572Z,4.29
2023-01-23T20:01:49.652Z,4.20
2023-01-23T20:04:20.635Z,4.19
2023-01-23T20:06:49.100Z,4.18
2023-01-23T20:09:16.238Z,4.20
2023-01-23T20:11:44.288Z,4.16
2023-01-23T20:14:14.417Z,4.11
2023-01-23T20:16:43.252Z,4.10
2023-01-23T20:19:14.443Z,4.05
2023-01-23T20:21:41.167Z,4.06
2023-01-23T20:24:08.417Z,4.04
2023-01-23T20:26:35.416Z,3.99
2023-01-23T20:29:03.930Z,4.00
2023-01-23T20:31:31.246Z,4.01
2023-01-23T20:33:59.443Z,4.00
2023-01-23T20:36:26.342Z,4.01
2023-01-23T20:38:53.148Z,4.02
2023-01-23T20:41:21.133Z,4.03
2023-01-23T20:43:48.261Z,4.02
2023-01-23T20:46:16.526Z,4.00
2023-01-23T20:48:44.562Z,3.97
2023-01-23T20:51:12.466Z,3.94
2023-01-23T20:53:40.104Z,3.94
2023-01-23T20:56:17.463Z,3.92
2023-01-23T20:59:05.858Z,3.93
2023-01-23T21:01:54.062Z,3.90
2023-01-23T21:04:22.070Z,3.88
2023-01-23T21:06:48.887Z,3.87
2023-01-23T21:09:16.435Z,3.88
2023-01-23T21:11:43.242Z,3.87
2023-01-23T21:14:10.315Z,3.85
2023-01-23T21:16:37.179Z,3.82
2023-01-23T21:19:04.327Z,3.80
2023-01-23T21:21:31.161Z,3.77
2023-01-23T21:23:58.169Z,3.75
2023-01-23T21:26:27.004Z,3.68
2023-01-23T21:28:55.032Z,3.62
2023-01-23T21:31:26.349Z,3.58
2023-01-23T21:33:54.071Z,3.57
2023-01-23T21:36:24.938Z,3.55
2023-01-23T21:38:52.790Z,3.54
2023-01-23T21:41:19.782Z,3.55
2023-01-23T21:43:46.731Z,3.58
2023-01-23T21:46:14.058Z,3.59
2023-01-23T21:48:41.128Z,3.57
2023-01-23T21:51:19.303Z,3.51
2023-01-23T21:53:48.269Z,3.54
2023-01-23T21:56:16.944Z,3.56
2023-01-23T21:58:43.767Z,3.56
2023-01-23T22:01:31.961Z,3.48
2023-01-23T22:04:00.428Z,3.53
2023-01-23T22:06:27.683Z,3.52
2023-01-23T22:08:55.864Z,3.51
2023-01-23T22:11:22.625Z,3.51
2023-01-23T22:13:49.439Z,3.53
2023-01-23T22:16:16.607Z,3.56
2023-01-23T22:18:43.434Z,3.58
2023-01-23T22:21:10.606Z,3.57
2023-01-23T22:23:37.834Z,3.55
2023-01-23T22:26:08.200Z,3.54
2023-01-23T22:28:35.757Z,3.53
2023-01-23T22:31:14.346Z,3.49
2023-01-23T22:33:44.500Z,3.53
2023-01-23T22:36:15.018Z,3.54
2023-01-23T22:38:41.792Z,3.57
2023-01-23T22:41:12.034Z,3.59
2023-01-23T22:43:38.761Z,3.58
2023-01-23T22:46:14.387Z,3.57
2023-01-23T22:48:41.189Z,3.58
2023-01-23T22:51:19.738Z,3.56
2023-01-23T22:53:48.165Z,3.57
2023-01-23T22:56:15.265Z,3.59
2023-01-23T22:58:46.238Z,3.60
2023-01-23T23:01:13.893Z,3.62
2023-01-23T23:03:41.098Z,3.61
2023-01-23T23:06:10.630Z,3.60
2023-01-23T23:08:37.801Z,3.61
2023-01-23T23:11:10.979Z,3.58
2023-01-23T23:13:40.477Z,3.53
2023-01-23T23:16:18.024Z,3.51
2023-01-23T23:18:46.972Z,3.54
2023-01-23T23:21:15.834Z,3.53
2023-01-23T23:23:42.668Z,3.55
2023-01-23T23:26:11.003Z,3.44
2023-01-23T23:28:39.051Z,3.50
2023-01-23T23:31:07.800Z,3.50
2023-01-23T23:33:37.235Z,3.46
2023-01-23T23:36:04.481Z,3.45
2023-01-23T23:38:31.388Z,3.45
2023-01-23T23:41:06.910Z,3.41
2023-01-23T23:43:34.452Z,3.42
2023-01-23T23:46:03.993Z,3.38
2023-01-23T23:48:32.603Z,3.37
2023-01-23T23:51:04.438Z,3.31
2023-01-23T23:53:32.879Z,3.28
2023-01-23T23:56:01.595Z,3.28
2023-01-23T23:58:28.398Z,3.27
